createdAt,value
2019-05-17T00:00:41.576Z,0.00
2019-05-17T00:01:41.576Z,0.00
2019-05-17T00:02:41.564Z,0.00
2019-05-17T00:03:41.563Z,0.00
2019-05-17T00:04:41.594Z,0.00
2019-05-17T00:05:41.557Z,0.00
2019-05-17T00:06:41.557Z,0.00
2019-05-17T00:07:41.548Z,0.00
2019-05-17T00:08:41.552Z,0.00
2019-05-17T00:09:41.574Z,0.00
2019-05-17T00:10:41.540Z,0.00
2019-05-17T00:11:41.546Z,0.00
2019-05-17T00:12:42.425Z,0.00
2019-05-17T00:13:41.533Z,0.00
2019-05-17T00:14:41.554Z,0.00
2019-05-17T00:15:41.525Z,0.00
2019-05-17T00:16:41.527Z,0.00
2019-05-17T00:17:41.515Z,0.00
2019-05-17T00:18:41.518Z,0.00
2019-05-17T00:19:41.535Z,0.00
2019-05-17T00:20:41.503Z,0.00
2019-05-17T00:21:41.502Z,0.00
2019-05-17T00:22:41.503Z,0.00
2019-05-17T00:23:41.499Z,0.00
2019-05-17T00:24:41.521Z,0.00
2019-05-17T00:25:41.489Z,0.00
2019-05-17T00:26:41.491Z,0.00
2019-05-17T00:27:41.487Z,0.00
2019-05-17T00:28:41.481Z,0.00
2019-05-17T00:29:41.503Z,0.00
2019-05-17T00:30:41.476Z,0.00
2019-05-17T00:31:41.474Z,0.00
2019-05-17T00:32:41.471Z,0.00
2019-05-17T00:33:41.459Z,0.00
2019-05-17T00:34:41.485Z,0.00
2019-05-17T00:35:42.357Z,0.00
2019-05-17T00:36:41.452Z,0.00
2019-05-17T00:37:41.456Z,0.00
2019-05-17T00:38:48.376Z,0.00
2019-05-17T00:39:41.476Z,0.00
2019-05-17T00:40:41.983Z,0.00
2019-05-17T00:41:41.439Z,0.00
2019-05-17T00:42:41.438Z,0.00
2019-05-17T00:43:41.430Z,0.00
2019-05-17T00:44:41.455Z,0.00
2019-05-17T00:45:41.425Z,0.00
2019-05-17T00:46:41.424Z,0.00
2019-05-17T00:47:41.420Z,0.00
2019-05-17T00:48:41.414Z,0.00
2019-05-17T00:49:41.444Z,0.00
2019-05-17T00:50:41.425Z,0.00
2019-05-17T00:51:41.411Z,0.00
2019-05-17T00:52:41.405Z,0.00
2019-05-17T00:53:41.396Z,0.00
2019-05-17T00:54:41.421Z,0.00
2019-05-17T00:55:41.392Z,0.00
2019-05-17T00:56:41.403Z,0.00
2019-05-17T00:57:41.384Z,0.00
2019-05-17T00:58:41.927Z,0.00
2019-05-17T00:59:41.419Z,0.00
2019-05-17T01:00:41.387Z,0.00
2019-05-17T01:01:41.981Z,0.00
2019-05-17T01:02:41.369Z,0.00
2019-05-17T01:03:41.365Z,0.00
2019-05-17T01:04:41.401Z,0.00
2019-05-17T01:05:41.357Z,0.00
2019-05-17T01:06:41.360Z,0.00
2019-05-17T01:07:41.928Z,0.00
2019-05-17T01:08:41.358Z,0.00
2019-05-17T01:09:41.378Z,0.00
2019-05-17T01:10:41.345Z,0.00
2019-05-17T01:11:41.349Z,0.00
2019-05-17T01:12:41.342Z,0.00
2019-05-17T01:13:41.415Z,0.00
2019-05-17T01:14:41.363Z,0.00
2019-05-17T01:15:41.326Z,0.00
2019-05-17T01:16:41.330Z,0.00
2019-05-17T01:17:41.328Z,0.00
2019-05-17T01:18:41.338Z,0.00
2019-05-17T01:19:41.348Z,0.00
2019-05-17T01:20:41.311Z,0.00
2019-05-17T01:21:41.318Z,0.00
2019-05-17T01:22:41.306Z,0.00
2019-05-17T01:23:41.307Z,0.00
2019-05-17T01:24:41.532Z,0.00
2019-05-17T01:25:41.302Z,0.00
2019-05-17T01:26:41.295Z,0.00
2019-05-17T01:27:42.359Z,0.00
2019-05-17T01:28:41.281Z,0.00
2019-05-17T01:29:41.314Z,0.00
2019-05-17T01:30:41.287Z,0.00
2019-05-17T01:31:41.278Z,0.00
2019-05-17T01:32:41.275Z,0.00
2019-05-17T01:33:41.270Z,0.00
2019-05-17T01:34:41.291Z,0.00
2019-05-17T01:35:41.264Z,0.00
2019-05-17T01:36:41.263Z,0.00
2019-05-17T01:37:42.067Z,0.00
2019-05-17T01:38:41.262Z,0.00
2019-05-17T01:39:41.283Z,0.00
2019-05-17T01:40:41.250Z,0.00
2019-05-17T01:41:41.243Z,0.00
2019-05-17T01:42:41.240Z,0.00
2019-05-17T01:43:41.248Z,0.00
2019-05-17T01:44:41.261Z,0.00
2019-05-17T01:45:41.232Z,0.00
2019-05-17T01:46:41.233Z,0.00
2019-05-17T01:47:41.219Z,0.00
2019-05-17T01:48:41.223Z,0.00
2019-05-17T01:49:41.247Z,0.00
2019-05-17T01:50:41.244Z,0.00
2019-05-17T01:51:41.217Z,0.00
2019-05-17T01:52:41.210Z,0.00
2019-05-17T01:53:41.204Z,0.00
2019-05-17T01:54:41.200Z,0.00
2019-05-17T01:55:41.228Z,0.00
2019-05-17T01:56:41.199Z,0.00
2019-05-17T01:57:41.187Z,0.00
2019-05-17T01:58:41.189Z,0.00
2019-05-17T01:59:41.185Z,0.00
2019-05-17T02:00:41.936Z,0.00
2019-05-17T02:01:41.181Z,0.00
2019-05-17T02:02:41.176Z,0.00
2019-05-17T02:03:41.172Z,0.00
2019-05-17T02:04:41.167Z,0.00
2019-05-17T02:05:41.193Z,0.00
2019-05-17T02:06:41.160Z,0.00
2019-05-17T02:07:41.167Z,0.00
2019-05-17T02:08:41.154Z,0.00
2019-05-17T02:09:41.908Z,0.00
2019-05-17T02:10:41.172Z,0.00
2019-05-17T02:11:41.145Z,0.00
2019-05-17T02:12:41.140Z,0.00
2019-05-17T02:13:41.271Z,0.00
2019-05-17T02:14:41.139Z,0.00
2019-05-17T02:15:41.156Z,0.00
2019-05-17T02:16:41.129Z,0.00
2019-05-17T02:17:41.120Z,0.00
2019-05-17T02:18:41.114Z,0.00
2019-05-17T02:19:41.146Z,0.00
2019-05-17T02:20:41.112Z,0.00
2019-05-17T02:21:41.108Z,0.00
2019-05-17T02:22:41.105Z,0.00
2019-05-17T02:23:41.102Z,0.00
2019-05-17T02:24:41.125Z,0.00
2019-05-17T02:25:41.108Z,0.00
2019-05-17T02:26:41.094Z,0.00
2019-05-17T02:27:44.498Z,0.00
2019-05-17T02:28:41.460Z,0.00
2019-05-17T02:29:42.438Z,0.00
2019-05-17T02:30:44.095Z,0.00
2019-05-17T02:31:43.439Z,0.00
2019-05-17T02:32:43.082Z,0.00
2019-05-17T02:33:43.033Z,0.00
2019-05-17T02:34:43.058Z,0.00
2019-05-17T02:35:42.980Z,0.00
2019-05-17T02:36:43.134Z,0.00
2019-05-17T02:37:43.392Z,0.00
2019-05-17T02:38:43.622Z,0.00
2019-05-17T02:39:54.010Z,0.00
2019-05-17T02:40:43.098Z,0.00
2019-05-17T02:41:42.960Z,0.00
2019-05-17T02:42:43.014Z,0.00
2019-05-17T02:43:43.421Z,0.00
2019-05-17T02:44:43.769Z,0.00
2019-05-17T02:45:43.559Z,4.00
2019-05-17T02:46:43.295Z,4.00
2019-05-17T02:47:43.580Z,4.00
2019-05-17T02:48:42.769Z,0.00
2019-05-17T02:49:42.452Z,4.00
2019-05-17T02:50:43.196Z,4.00
2019-05-17T02:51:43.154Z,8.00
2019-05-17T02:52:43.566Z,4.00
2019-05-17T02:53:42.987Z,8.00
2019-05-17T02:54:43.699Z,8.00
2019-05-17T02:55:43.553Z,12.00
2019-05-17T02:56:43.627Z,12.00
2019-05-17T02:57:43.273Z,12.00
2019-05-17T02:58:43.750Z,16.00
2019-05-17T02:59:43.293Z,16.00
2019-05-17T03:00:44.350Z,20.00
2019-05-17T03:01:44.232Z,24.00
2019-05-17T03:02:43.467Z,24.00
2019-05-17T03:03:43.713Z,32.00
2019-05-17T03:04:43.283Z,32.00
2019-05-17T03:05:43.045Z,40.00
2019-05-17T03:06:43.792Z,40.00
2019-05-17T03:07:43.908Z,44.00
2019-05-17T03:08:42.965Z,48.00
2019-05-17T03:09:43.152Z,52.00
2019-05-17T03:10:43.263Z,60.00
2019-05-17T03:11:42.870Z,64.00
2019-05-17T03:12:43.925Z,72.00
2019-05-17T03:13:43.414Z,80.00
2019-05-17T03:14:43.246Z,88.00
2019-05-17T03:15:43.276Z,96.00
2019-05-17T03:16:43.078Z,104.00
2019-05-17T03:17:43.295Z,116.00
2019-05-17T03:18:43.763Z,124.00
2019-05-17T03:19:43.522Z,136.00
2019-05-17T03:20:43.151Z,152.00
2019-05-17T03:21:42.857Z,164.00
2019-05-17T03:22:44.167Z,184.00
2019-05-17T03:23:43.533Z,200.00
2019-05-17T03:24:43.680Z,220.00
2019-05-17T03:25:43.774Z,240.00
2019-05-17T03:26:43.075Z,252.00
2019-05-17T03:27:42.888Z,272.00
2019-05-17T03:28:42.690Z,284.00
2019-05-17T03:29:42.516Z,296.00
2019-05-17T03:30:45.994Z,316.00
2019-05-17T03:31:50.103Z,348.00
2019-05-17T03:32:46.408Z,380.00
2019-05-17T03:33:45.385Z,408.00
2019-05-17T03:34:44.892Z,428.00
2019-05-17T03:35:45.717Z,448.00
2019-05-17T03:36:46.124Z,480.00
2019-05-17T03:37:43.732Z,508.00
2019-05-17T03:38:43.163Z,552.00
2019-05-17T03:39:42.711Z,596.00
2019-05-17T03:41:07.567Z,656.00
2019-05-17T03:41:42.858Z,736.00
2019-05-17T03:42:42.809Z,804.00
2019-05-17T03:43:44.125Z,848.00
2019-05-17T03:44:43.615Z,892.00
2019-05-17T03:45:42.673Z,968.00
2019-05-17T03:46:42.548Z,1008.00
2019-05-17T03:47:43.939Z,1056.00
2019-05-17T03:48:43.568Z,1124.00
2019-05-17T03:49:43.567Z,1156.00
2019-05-17T03:50:43.478Z,1156.00
2019-05-17T03:51:42.596Z,1192.00
2019-05-17T03:52:43.808Z,1248.00
2019-05-17T03:53:43.893Z,1320.00
2019-05-17T03:54:43.001Z,1392.00
2019-05-17T03:55:42.994Z,1480.00
2019-05-17T03:56:42.802Z,1552.00
2019-05-17T03:57:43.905Z,1556.00
2019-05-17T03:58:43.347Z,1572.00
2019-05-17T03:59:43.080Z,1580.00
2019-05-17T04:00:42.799Z,1608.00
2019-05-17T04:01:43.630Z,1648.00
2019-05-17T04:02:44.427Z,1708.00
2019-05-17T04:03:43.421Z,1784.00
2019-05-17T04:04:42.956Z,1860.00
2019-05-17T04:05:42.957Z,1904.00
2019-05-17T04:06:43.342Z,1916.00
2019-05-17T04:07:43.345Z,1956.00
2019-05-17T04:08:42.526Z,2024.00
2019-05-17T04:09:43.701Z,2120.00
2019-05-17T04:10:42.588Z,2176.00
2019-05-17T04:11:42.974Z,2180.00
2019-05-17T04:12:43.637Z,2200.00
2019-05-17T04:13:43.018Z,2228.00
2019-05-17T04:14:42.916Z,2320.00
2019-05-17T04:15:43.404Z,2440.00
2019-05-17T04:16:42.901Z,2512.00
2019-05-17T04:17:43.992Z,2588.00
2019-05-17T04:18:43.742Z,2624.00
2019-05-17T04:19:42.552Z,2696.00
2019-05-17T04:20:43.329Z,2696.00
2019-05-17T04:21:42.916Z,2724.00
2019-05-17T04:22:43.975Z,2736.00
2019-05-17T04:23:42.894Z,2728.00
2019-05-17T04:24:43.786Z,2728.00
2019-05-17T04:25:43.623Z,2740.00
2019-05-17T04:26:43.829Z,2756.00
2019-05-17T04:27:43.560Z,2820.00
2019-05-17T04:28:43.778Z,2884.00
2019-05-17T04:29:42.569Z,2952.00
2019-05-17T04:30:43.294Z,3008.00
2019-05-17T04:31:43.496Z,3072.00
2019-05-17T04:32:43.625Z,3120.00
2019-05-17T04:33:42.747Z,3188.00
2019-05-17T04:34:43.409Z,3248.00
2019-05-17T04:35:43.236Z,3264.00
2019-05-17T04:36:42.944Z,3272.00
2019-05-17T04:37:43.871Z,3256.00
2019-05-17T04:38:43.471Z,3272.00
2019-05-17T04:39:43.082Z,3288.00
2019-05-17T04:40:43.134Z,3364.00
2019-05-17T04:41:49.087Z,3476.00
2019-05-17T04:42:43.891Z,3620.00
2019-05-17T04:43:42.422Z,3720.00
2019-05-17T04:44:43.134Z,3796.00
2019-05-17T04:45:42.577Z,3860.00
2019-05-17T04:46:43.196Z,3908.00
2019-05-17T04:47:43.687Z,3980.00
2019-05-17T04:48:43.865Z,4068.00
2019-05-17T04:49:43.713Z,4160.00
2019-05-17T04:50:42.858Z,4264.00
2019-05-17T04:51:43.718Z,4328.00
2019-05-17T04:52:42.879Z,4400.00
2019-05-17T04:53:42.985Z,4492.00
2019-05-17T04:54:42.450Z,4588.00
2019-05-17T04:55:43.045Z,4700.00
2019-05-17T04:56:42.593Z,4812.00
2019-05-17T04:57:44.061Z,4888.00
2019-05-17T04:58:42.970Z,4936.00
2019-05-17T04:59:43.145Z,4940.00
2019-05-17T05:00:43.087Z,4972.00
2019-05-17T05:01:43.554Z,5028.00
2019-05-17T05:02:43.447Z,5104.00
2019-05-17T05:04:03.485Z,5208.00
2019-05-17T05:04:43.470Z,5328.00
2019-05-17T05:05:42.798Z,5472.00
2019-05-17T05:06:43.402Z,5632.00
2019-05-17T05:07:43.195Z,5756.00
2019-05-17T05:08:42.419Z,5816.00
2019-05-17T05:09:42.914Z,5836.00
2019-05-17T05:10:42.690Z,5860.00
2019-05-17T05:11:53.378Z,5964.00
2019-05-17T05:12:43.541Z,6072.00
2019-05-17T05:13:42.652Z,6244.00
2019-05-17T05:14:42.879Z,6416.00
2019-05-17T05:15:43.370Z,6552.00
2019-05-17T05:16:42.396Z,6704.00
2019-05-17T05:17:42.516Z,6804.00
2019-05-17T05:18:42.071Z,6764.00
2019-05-17T05:19:42.245Z,6644.00
2019-05-17T05:20:43.142Z,6524.00
2019-05-17T05:21:42.664Z,6420.00
2019-05-17T05:22:42.608Z,6324.00
2019-05-17T05:23:42.447Z,6216.00
2019-05-17T05:24:42.328Z,6156.00
2019-05-17T05:25:42.723Z,6144.00
2019-05-17T05:26:42.505Z,6160.00
2019-05-17T05:27:42.786Z,6152.00
2019-05-17T05:28:41.957Z,6128.00
2019-05-17T05:29:41.588Z,6144.00
2019-05-17T05:30:42.193Z,6148.00
2019-05-17T05:31:42.611Z,6160.00
2019-05-17T05:32:42.597Z,6180.00
2019-05-17T05:33:41.963Z,6184.00
2019-05-17T05:34:42.757Z,6132.00
2019-05-17T05:35:42.502Z,6056.00
2019-05-17T05:36:41.897Z,6044.00
2019-05-17T05:37:42.267Z,6056.00
2019-05-17T05:38:42.276Z,6124.00
2019-05-17T05:39:41.409Z,6236.00
2019-05-17T05:40:41.431Z,6360.00
2019-05-17T05:41:42.533Z,6468.00
2019-05-17T05:42:42.647Z,6588.00
2019-05-17T05:43:41.969Z,6664.00
2019-05-17T05:44:41.582Z,6728.00
2019-05-17T05:45:41.783Z,6812.00
2019-05-17T05:46:42.248Z,6980.00
2019-05-17T05:47:41.554Z,7216.00
2019-05-17T05:48:41.610Z,7508.00
2019-05-17T05:49:42.489Z,7812.00
2019-05-17T05:50:42.559Z,8036.00
2019-05-17T05:51:42.516Z,8236.00
2019-05-17T05:52:42.186Z,8436.00
2019-05-17T05:53:41.937Z,8652.00
2019-05-17T05:54:41.300Z,8832.00
2019-05-17T05:55:42.783Z,8868.00
2019-05-17T05:56:42.277Z,8832.00
2019-05-17T05:57:42.115Z,8832.00
2019-05-17T05:58:42.668Z,8964.00
2019-05-17T05:59:42.542Z,9140.00
2019-05-17T06:00:42.767Z,9384.00
2019-05-17T06:01:42.089Z,9652.00
2019-05-17T06:02:41.915Z,9912.00
2019-05-17T06:03:41.445Z,10048.00
2019-05-17T06:04:42.423Z,10092.00
2019-05-17T06:05:42.316Z,10112.00
2019-05-17T06:06:41.643Z,10184.00
2019-05-17T06:07:41.666Z,10332.00
2019-05-17T06:08:41.469Z,10632.00
2019-05-17T06:09:42.373Z,11060.00
2019-05-17T06:10:42.633Z,11540.00
2019-05-17T06:11:41.685Z,12012.00
2019-05-17T06:12:42.965Z,12372.00
2019-05-17T06:13:41.901Z,12508.00
2019-05-17T06:14:41.673Z,12620.00
2019-05-17T06:15:42.658Z,12664.00
2019-05-17T06:16:42.463Z,12672.00
2019-05-17T06:17:42.477Z,12728.00
2019-05-17T06:18:42.400Z,12908.00
2019-05-17T06:19:42.217Z,13004.00
2019-05-17T06:20:41.789Z,13124.00
2019-05-17T06:21:42.501Z,13200.00
2019-05-17T06:22:42.500Z,13324.00
2019-05-17T06:23:42.408Z,13532.00
2019-05-17T06:24:42.428Z,13776.00
2019-05-17T06:25:43.101Z,14032.00
2019-05-17T06:26:42.173Z,14256.00
2019-05-17T06:27:41.529Z,14468.00
2019-05-17T06:28:42.341Z,14664.00
2019-05-17T06:29:41.522Z,14924.00
2019-05-17T06:30:42.655Z,15188.00
2019-05-17T06:31:43.028Z,15556.00
2019-05-17T06:32:43.189Z,15960.00
2019-05-17T06:33:42.185Z,16356.00
2019-05-17T06:34:42.323Z,16756.00
2019-05-17T06:35:42.340Z,17012.00
2019-05-17T06:36:42.311Z,17204.00
2019-05-17T06:37:42.258Z,17600.00
2019-05-17T06:38:42.048Z,17920.00
2019-05-17T06:39:41.941Z,18240.00
2019-05-17T06:40:42.020Z,18720.00
2019-05-17T06:41:41.924Z,18976.00
2019-05-17T06:42:44.733Z,19200.00
2019-05-17T06:43:41.616Z,19456.00
2019-05-17T06:44:41.736Z,19776.00
2019-05-17T06:45:41.936Z,20000.00
2019-05-17T06:46:41.881Z,20192.00
2019-05-17T06:47:42.498Z,20608.00
2019-05-17T06:48:42.331Z,21312.00
2019-05-17T06:49:42.315Z,22048.00
2019-05-17T06:50:42.549Z,22432.00
2019-05-17T06:51:42.376Z,22400.00
2019-05-17T06:52:43.131Z,22176.00
2019-05-17T06:53:40.391Z,21952.00
2019-05-17T06:54:41.746Z,22016.00
2019-05-17T06:55:42.456Z,22240.00
2019-05-17T06:56:41.874Z,22496.00
2019-05-17T06:57:42.850Z,22752.00
2019-05-17T06:58:40.386Z,23040.00
2019-05-17T06:59:40.414Z,23360.00
2019-05-17T07:00:40.550Z,23616.00
2019-05-17T07:01:41.004Z,23872.00
2019-05-17T07:02:40.387Z,24160.00
2019-05-17T07:03:40.391Z,24512.00
2019-05-17T07:04:40.392Z,24864.00
2019-05-17T07:05:40.601Z,24992.00
2019-05-17T07:06:40.656Z,25024.00
2019-05-17T07:07:40.604Z,24960.00
2019-05-17T07:08:40.390Z,24928.00
2019-05-17T07:09:40.387Z,25024.00
2019-05-17T07:10:40.383Z,25536.00
2019-05-17T07:11:40.414Z,26208.00
2019-05-17T07:12:54.590Z,26976.00
2019-05-17T07:13:40.378Z,27488.00
2019-05-17T07:14:40.390Z,27776.00
2019-05-17T07:15:47.201Z,28160.00
2019-05-17T07:16:40.418Z,28640.00
2019-05-17T07:17:40.413Z,28832.00
2019-05-17T07:18:40.383Z,28416.00
2019-05-17T07:19:40.417Z,27552.00
2019-05-17T07:20:40.390Z,26496.00
2019-05-17T07:21:40.617Z,24960.00
2019-05-17T07:22:41.037Z,23904.00
2019-05-17T07:23:40.385Z,23392.00
2019-05-17T07:24:40.383Z,23296.00
2019-05-17T07:25:40.411Z,24160.00
2019-05-17T07:26:40.379Z,25568.00
2019-05-17T07:27:44.785Z,26912.00
2019-05-17T07:28:40.577Z,27808.00
2019-05-17T07:29:40.503Z,27840.00
2019-05-17T07:30:40.412Z,27840.00
2019-05-17T07:31:40.615Z,28288.00
2019-05-17T07:32:40.875Z,29696.00
2019-05-17T07:33:40.381Z,31296.00
2019-05-17T07:34:40.406Z,30976.00
2019-05-17T07:35:40.417Z,30880.00
2019-05-17T07:36:40.388Z,30432.00
2019-05-17T07:37:40.407Z,28512.00
2019-05-17T07:38:40.386Z,27232.00
2019-05-17T07:39:42.373Z,26816.00
2019-05-17T07:40:40.419Z,26432.00
2019-05-17T07:41:40.395Z,24992.00
2019-05-17T07:42:40.389Z,25504.00
2019-05-17T07:43:40.648Z,26016.00
2019-05-17T07:44:40.390Z,24896.00
2019-05-17T07:45:40.736Z,24640.00
2019-05-17T07:46:40.391Z,26560.00
2019-05-17T07:47:40.773Z,28192.00
2019-05-17T07:48:40.661Z,29056.00
2019-05-17T07:49:40.570Z,30048.00
2019-05-17T07:50:40.422Z,31424.00
2019-05-17T07:51:40.396Z,32960.00
2019-05-17T07:52:40.408Z,33120.00
2019-05-17T07:53:40.393Z,33920.00
2019-05-17T07:54:40.392Z,34944.00
2019-05-17T07:55:40.425Z,36064.00
2019-05-17T07:56:40.429Z,36352.00
2019-05-17T07:57:40.999Z,35424.00
2019-05-17T07:58:40.549Z,33024.00
2019-05-17T07:59:40.404Z,30208.00
2019-05-17T08:00:40.479Z,27648.00
2019-05-17T08:01:41.209Z,26176.00
2019-05-17T08:02:40.544Z,25312.00
2019-05-17T08:03:40.546Z,24384.00
2019-05-17T08:04:40.796Z,23392.00
2019-05-17T08:05:40.600Z,22400.00
2019-05-17T08:06:40.481Z,23552.00
2019-05-17T08:07:40.863Z,25408.00
2019-05-17T08:08:41.077Z,27232.00
2019-05-17T08:09:40.525Z,28608.00
2019-05-17T08:10:41.205Z,29280.00
2019-05-17T08:11:40.440Z,30976.00
2019-05-17T08:12:41.073Z,33120.00
2019-05-17T08:13:40.412Z,32768.00
2019-05-17T08:14:40.426Z,33120.00
2019-05-17T08:15:40.422Z,34528.00
2019-05-17T08:16:40.442Z,34944.00
2019-05-17T08:17:40.420Z,34432.00
2019-05-17T08:18:40.425Z,35200.00
2019-05-17T08:19:40.445Z,36224.00
2019-05-17T08:20:40.427Z,38176.00
2019-05-17T08:21:40.458Z,40096.00
2019-05-17T08:22:40.427Z,41952.00
2019-05-17T08:23:40.427Z,42048.00
2019-05-17T08:24:40.427Z,40928.00
2019-05-17T08:25:52.138Z,39552.00
2019-05-17T08:26:40.569Z,38432.00
2019-05-17T08:27:40.788Z,36544.00
2019-05-17T08:28:40.721Z,34144.00
2019-05-17T08:29:42.423Z,31232.00
2019-05-17T08:30:41.128Z,28288.00
2019-05-17T08:31:40.659Z,25280.00
2019-05-17T08:32:40.600Z,22912.00
2019-05-17T08:33:40.753Z,21632.00
2019-05-17T08:34:40.444Z,21152.00
2019-05-17T08:35:40.474Z,20128.00
2019-05-17T08:36:40.711Z,17984.00
2019-05-17T08:37:42.400Z,16004.00
2019-05-17T08:38:40.447Z,15080.00
2019-05-17T08:39:40.467Z,14728.00
2019-05-17T08:40:40.809Z,14616.00
2019-05-17T08:41:40.645Z,14672.00
2019-05-17T08:42:40.882Z,15096.00
2019-05-17T08:43:46.600Z,15656.00
2019-05-17T08:44:40.452Z,16432.00
2019-05-17T08:45:40.969Z,17408.00
2019-05-17T08:46:40.453Z,17792.00
2019-05-17T08:47:40.481Z,17472.00
2019-05-17T08:48:40.466Z,16644.00
2019-05-17T08:49:40.486Z,16344.00
2019-05-17T08:50:40.658Z,16444.00
2019-05-17T08:51:40.458Z,16124.00
2019-05-17T08:52:40.681Z,15300.00
2019-05-17T08:53:40.460Z,14604.00
2019-05-17T08:54:42.823Z,14256.00
2019-05-17T08:55:41.073Z,14296.00
2019-05-17T08:56:40.543Z,15252.00
2019-05-17T08:57:40.475Z,16728.00
2019-05-17T08:58:40.548Z,17664.00
2019-05-17T08:59:40.683Z,17504.00
2019-05-17T09:00:41.029Z,17312.00
2019-05-17T09:01:41.868Z,17696.00
2019-05-17T09:02:41.140Z,18592.00
2019-05-17T09:03:41.205Z,19776.00
2019-05-17T09:04:40.632Z,21056.00
2019-05-17T09:05:41.845Z,22336.00
2019-05-17T09:06:40.472Z,23328.00
2019-05-17T09:07:40.541Z,23840.00
2019-05-17T09:08:40.657Z,24224.00
2019-05-17T09:09:40.464Z,24192.00
2019-05-17T09:10:41.007Z,23584.00
2019-05-17T09:11:40.472Z,22496.00
2019-05-17T09:12:41.138Z,20896.00
2019-05-17T09:13:53.410Z,19232.00
2019-05-17T09:14:40.468Z,18048.00
2019-05-17T09:15:40.490Z,17504.00
2019-05-17T09:16:40.476Z,17632.00
2019-05-17T09:17:40.466Z,18112.00
2019-05-17T09:18:40.496Z,18592.00
2019-05-17T09:19:40.476Z,18624.00
2019-05-17T09:20:40.834Z,18496.00
2019-05-17T09:21:40.475Z,18624.00
2019-05-17T09:22:40.475Z,19072.00
2019-05-17T09:23:40.501Z,19744.00
2019-05-17T09:24:40.479Z,20416.00
2019-05-17T09:25:40.480Z,20992.00
2019-05-17T09:26:40.499Z,21824.00
2019-05-17T09:27:40.475Z,23104.00
2019-05-17T09:28:40.479Z,24672.00
2019-05-17T09:29:40.519Z,26368.00
2019-05-17T09:30:40.835Z,28000.00
2019-05-17T09:31:40.577Z,29600.00
2019-05-17T09:32:40.719Z,31200.00
2019-05-17T09:33:40.730Z,32288.00
2019-05-17T09:34:40.571Z,32928.00
2019-05-17T09:35:40.957Z,33568.00
2019-05-17T09:36:40.993Z,34336.00
2019-05-17T09:37:41.330Z,34848.00
2019-05-17T09:38:40.601Z,34464.00
2019-05-17T09:39:40.512Z,33472.00
2019-05-17T09:40:40.565Z,32480.00
2019-05-17T09:41:40.496Z,31904.00
2019-05-17T09:42:41.361Z,31360.00
2019-05-17T09:43:40.521Z,31072.00
2019-05-17T09:44:40.581Z,30528.00
2019-05-17T09:45:40.788Z,29792.00
2019-05-17T09:46:40.494Z,28928.00
2019-05-17T09:47:40.502Z,27712.00
2019-05-17T09:48:40.532Z,26144.00
2019-05-17T09:49:40.501Z,24576.00
2019-05-17T09:50:40.633Z,23296.00
2019-05-17T09:51:40.509Z,22496.00
2019-05-17T09:52:40.905Z,22144.00
2019-05-17T09:53:40.514Z,22240.00
2019-05-17T09:54:45.165Z,22240.00
2019-05-17T09:55:40.514Z,22272.00
2019-05-17T09:56:40.516Z,22944.00
2019-05-17T09:57:41.115Z,24544.00
2019-05-17T09:58:40.521Z,27712.00
2019-05-17T09:59:40.693Z,29184.00
2019-05-17T10:00:40.518Z,30880.00
2019-05-17T10:01:40.524Z,31872.00
2019-05-17T10:02:40.580Z,31392.00
2019-05-17T10:03:40.528Z,30784.00
2019-05-17T10:04:40.554Z,28768.00
2019-05-17T10:05:40.879Z,25472.00
2019-05-17T10:06:40.525Z,22848.00
2019-05-17T10:07:40.649Z,19936.00
2019-05-17T10:08:40.534Z,16640.00
2019-05-17T10:09:40.565Z,14268.00
2019-05-17T10:10:40.569Z,12548.00
2019-05-17T10:11:40.547Z,10956.00
2019-05-17T10:12:40.699Z,9992.00
2019-05-17T10:13:40.552Z,9664.00
2019-05-17T10:14:40.567Z,10184.00
2019-05-17T10:15:41.121Z,11208.00
2019-05-17T10:16:40.539Z,12184.00
2019-05-17T10:17:40.545Z,12816.00
2019-05-17T10:18:40.553Z,13312.00
2019-05-17T10:19:40.580Z,14140.00
2019-05-17T10:20:40.546Z,15348.00
2019-05-17T10:21:40.549Z,16864.00
2019-05-17T10:22:40.552Z,18368.00
2019-05-17T10:23:40.829Z,20256.00
2019-05-17T10:24:42.460Z,22720.00
2019-05-17T10:25:40.592Z,25504.00
2019-05-17T10:26:40.554Z,28320.00
2019-05-17T10:27:40.901Z,30944.00
2019-05-17T10:28:40.553Z,33152.00
2019-05-17T10:29:40.581Z,35104.00
2019-05-17T10:30:40.554Z,36768.00
2019-05-17T10:31:40.555Z,38400.00
2019-05-17T10:32:41.113Z,40064.00
2019-05-17T10:33:40.559Z,41216.00
2019-05-17T10:34:40.585Z,42112.00
2019-05-17T10:35:40.898Z,44608.00
2019-05-17T10:36:40.561Z,43936.00
2019-05-17T10:37:40.973Z,43552.00
2019-05-17T10:38:40.562Z,43136.00
2019-05-17T10:39:41.674Z,42528.00
2019-05-17T10:40:41.132Z,41888.00
2019-05-17T10:41:40.795Z,41344.00
2019-05-17T10:42:40.570Z,40992.00
2019-05-17T10:43:40.581Z,41216.00
2019-05-17T10:44:47.101Z,41792.00
2019-05-17T10:45:40.611Z,42272.00
2019-05-17T10:46:40.793Z,42944.00
2019-05-17T10:47:40.589Z,43424.00
2019-05-17T10:48:41.197Z,43264.00
2019-05-17T10:49:40.589Z,43072.00
2019-05-17T10:50:40.949Z,43072.00
2019-05-17T10:51:40.598Z,43008.00
2019-05-17T10:52:41.281Z,42400.00
2019-05-17T10:53:40.598Z,41984.00
2019-05-17T10:54:40.599Z,42240.00
2019-05-17T10:55:40.636Z,42400.00
2019-05-17T10:56:40.611Z,42528.00
2019-05-17T10:57:40.612Z,42848.00
2019-05-17T10:58:40.613Z,42816.00
2019-05-17T10:59:40.614Z,41536.00
2019-05-17T11:00:41.549Z,39200.00
2019-05-17T11:01:40.626Z,36704.00
2019-05-17T11:02:40.622Z,35232.00
2019-05-17T11:03:40.634Z,35136.00
2019-05-17T11:04:40.632Z,36448.00
2019-05-17T11:05:40.667Z,37920.00
2019-05-17T11:06:40.638Z,38784.00
2019-05-17T11:07:40.643Z,39936.00
2019-05-17T11:08:40.643Z,40992.00
2019-05-17T11:09:40.752Z,41760.00
2019-05-17T11:10:40.674Z,42016.00
2019-05-17T11:11:40.654Z,43872.00
2019-05-17T11:12:40.660Z,46304.00
2019-05-17T11:13:40.663Z,47968.00
2019-05-17T11:14:52.179Z,49824.00
2019-05-17T11:15:40.697Z,48160.00
2019-05-17T11:16:40.672Z,46784.00
2019-05-17T11:17:40.676Z,47200.00
2019-05-17T11:18:40.683Z,47328.00
2019-05-17T11:19:40.688Z,47008.00
2019-05-17T11:20:40.717Z,46848.00
2019-05-17T11:21:40.695Z,45760.00
2019-05-17T11:22:40.700Z,43488.00
2019-05-17T11:23:40.706Z,41344.00
2019-05-17T11:24:40.711Z,40832.00
2019-05-17T11:25:45.461Z,39904.00
2019-05-17T11:26:40.712Z,38368.00
2019-05-17T11:27:40.719Z,36736.00
2019-05-17T11:28:40.726Z,35264.00
2019-05-17T11:29:40.726Z,33888.00
2019-05-17T11:30:40.758Z,32608.00
2019-05-17T11:31:40.746Z,31296.00
2019-05-17T11:32:40.744Z,30752.00
2019-05-17T11:33:40.748Z,30944.00
2019-05-17T11:34:40.749Z,31296.00
2019-05-17T11:35:40.789Z,31360.00
2019-05-17T11:36:40.754Z,31296.00
2019-05-17T11:37:40.758Z,31488.00
2019-05-17T11:38:41.562Z,31232.00
2019-05-17T11:39:40.768Z,30080.00
2019-05-17T11:40:40.797Z,28672.00
2019-05-17T11:41:40.774Z,28064.00
2019-05-17T11:42:40.781Z,28224.00
2019-05-17T11:43:40.796Z,28928.00
2019-05-17T11:44:40.788Z,31360.00
2019-05-17T11:45:40.824Z,36800.00
2019-05-17T11:46:40.794Z,45088.00
2019-05-17T11:47:40.801Z,47104.00
2019-05-17T11:48:40.799Z,44896.00
2019-05-17T11:49:40.810Z,43456.00
2019-05-17T11:50:40.838Z,42752.00
2019-05-17T11:51:40.812Z,41152.00
2019-05-17T11:52:40.812Z,40736.00
2019-05-17T11:53:40.821Z,41568.00
2019-05-17T11:54:40.822Z,41280.00
2019-05-17T11:55:40.858Z,43008.00
2019-05-17T11:56:40.827Z,41664.00
2019-05-17T11:57:40.833Z,39552.00
2019-05-17T11:58:41.027Z,38080.00
2019-05-17T11:59:40.868Z,38080.00
2019-05-17T12:00:40.853Z,36512.00
2019-05-17T12:01:40.860Z,35968.00
2019-05-17T12:02:40.855Z,35840.00
2019-05-17T12:03:40.858Z,35936.00
2019-05-17T12:04:40.890Z,36160.00
2019-05-17T12:05:40.872Z,36448.00
2019-05-17T12:06:40.868Z,36512.00
2019-05-17T12:07:40.875Z,36000.00
2019-05-17T12:08:40.877Z,34880.00
2019-05-17T12:09:40.901Z,34112.00
2019-05-17T12:10:40.965Z,34208.00
2019-05-17T12:11:40.884Z,34784.00
2019-05-17T12:12:40.892Z,34880.00